Time Latitude Longitude Accuracy (66% radius in meters) Altitude (meters) Speed (km/hour) Bearing (degrees) Battery (%) GPS flag
09:56:46 55.737896 37.299034 10 168 0 42.978900909424 80 1 delete
09:56:34 55.737882 37.299025 5 174 0 306.51330566406 80 1 delete
09:56:22 55.737882 37.299033 5 172 0 219.23622131348 80 1 delete
09:56:09 55.737886 37.299038 10 174 0 206.79774475098 80 1 delete
09:55:57 55.737891 37.299044 5 174 0 152.02923583984 80 1 delete
09:55:45 55.737892 37.299046 5 174 0 152.02923583984 80 1 delete
09:55:33 55.737893 37.299046 5 173 0 152.02923583984 80 1 delete
09:55:21 55.737891 37.299039 5 175 0 206.19929504395 80 1 delete
09:55:08 55.737890 37.299042 5 176 0 206.19929504395 80 1 delete
09:54:56 55.737890 37.299042 5 175 0 206.19929504395 80 1 delete
09:54:44 55.737890 37.299045 5 175 0 206.19929504395 80 1 delete
09:54:31 55.737890 37.299045 5 174 0 206.19929504395 80 1 delete
09:54:19 55.737890 37.299045 5 178 0 206.19929504395 80 1 delete
09:54:06 55.737890 37.299045 5 176 0 206.19929504395 80 1 delete
09:53:54 55.737890 37.299045 5 178 0 206.19929504395 80 1 delete
09:53:41 55.737894 37.299049 5 173 0 160.58001708984 80 1 delete
09:53:29 55.737894 37.299049 5 174 0 160.58001708984 80 1 delete
09:53:17 55.737894 37.299049 5 175 0 160.58001708984 80 1 delete
09:53:04 55.737894 37.299049 10 175 0 160.58001708984 80 1 delete
09:52:52 55.737894 37.299049 5 176 0 160.58001708984 80 1 delete
09:52:40 55.737899 37.299046 10 174 0 164.59831237793 80 1 delete
09:52:26 55.737902 37.299045 5 172 0 16.132139205933 80 1 delete
09:52:14 55.737884 37.299044 5 175 0 184.82740783691 80 1 delete
09:52:01 55.737878 37.299032 5 171 0 13.92440700531 80 1 delete
09:51:48 55.737867 37.299020 5 175 0 231.43673706055 80 1 delete
09:51:36 55.737870 37.299028 5 170 0 165.70596313477 80 1 delete
09:51:24 55.737870 37.299030 5 173 0 165.70596313477 80 1 delete
09:51:12 55.737870 37.299030 5 173 0 165.70596313477 80 1 delete
09:50:59 55.737870 37.299030 5 177 0 165.70596313477 80 1 delete
09:50:47 55.737870 37.299030 5 172 0 165.70596313477 80 1 delete
09:50:35 55.737870 37.299030 5 172 0 165.70596313477 80 1 delete
09:50:22 55.737870 37.299031 5 174 0 165.70596313477 80 1 delete
09:50:10 55.737870 37.299031 5 176 0 165.70596313477 80 1 delete
09:49:57 55.737866 37.299030 5 172 0 165.70596313477 80 1 delete
09:49:45 55.737867 37.299029 5 175 0 195.04438781738 80 1 delete
09:49:32 55.737864 37.299029 5 173 0 195.04438781738 80 1 delete
09:49:19 55.737856 37.299026 5 173 0 195.04438781738 80 1 delete
09:49:07 55.737860 37.299026 5 169 0 193.33711242676 80 1 delete
09:48:54 55.737865 37.299029 5 173 0 12.227655410767 80 1 delete
09:48:40 55.737864 37.299038 10 170 0 237.01945495605 80 1 delete
09:48:27 55.737863 37.299046 10 171 0 237.01945495605 80 1 delete
09:48:15 55.737864 37.299054 5 172 0 145.1770324707 80 1 delete
09:48:02 55.737863 37.299056 5 166 0 145.1770324707 80 1 delete
09:47:49 55.737873 37.299059 10 167 0 145.1770324707 80 1 delete
09:47:36 55.737905 37.299058 5 168 0 145.1770324707 80 1 delete
09:47:22 55.737910 37.299054 5 175 0 11.682849884033 80 1 delete
09:47:10 55.737913 37.299057 5 175 0 11.682849884033 80 1 delete
09:46:57 55.737906 37.299052 5 176 0 6.0393171310425 80 1 delete
09:46:45 55.737901 37.299053 5 171 0 41.683528900146 80 1 delete
09:46:32 55.737895 37.299049 5 169 0 41.683528900146 80 1 delete